Time;durP1;ratioP1;P1;durP2;ratioP2;P2;SDS_P1;SDS_P2;PMS_P1;PMS_P2;Temp;Humidity;BMP_temperature;BMP_pressure;BME280_temperature;BME280_humidity;BME280_pressure;Samples;Min_cycle;Max_cycle;Signal;HPM_P1;HPM_P2
2023/03/02 00:00:55;;;;;;;;;12.00;9.75;;;;;22.88;28.09;101353.44;5054803;28;47119;-78
2023/03/02 00:03:21;;;;;;;;;10.25;10.25;;;;;22.91;28.41;101357.69;5058578;27;45272;-78
2023/03/02 00:05:46;;;;;;;;;12.75;11.25;;;;;22.87;27.76;101356.22;5085795;27;45401;-78
2023/03/02 00:08:16;;;;;;;;;14.75;12.00;;;;;22.87;28.06;101353.56;5076719;27;45184;-78
2023/03/02 00:10:42;;;;;;;;;11.75;10.25;;;;;22.86;28.19;101343.81;5061164;28;46233;-79
2023/03/02 00:13:08;;;;;;;;;12.25;10.25;;;;;22.87;27.80;101348.22;5073086;28;45859;-78
2023/03/02 00:15:33;;;;;;;;;13.00;11.50;;;;;22.89;27.88;101360.47;5071951;28;45411;-79
2023/03/02 00:17:59;;;;;;;;;14.50;12.75;;;;;22.88;28.17;101353.44;5075840;27;45567;-78
2023/03/02 00:20:24;;;;;;;;;12.75;10.00;;;;;22.89;28.16;101356.97;5063565;27;71996;-78
2023/03/02 00:22:50;;;;;;;;;14.00;11.25;;;;;22.87;28.26;101353.56;5064812;28;45536;-79
2023/03/02 00:25:16;;;;;;;;;10.75;9.25;;;;;22.89;27.73;101354.28;5066895;27;45809;-78
2023/03/02 00:27:42;;;;;;;;;13.50;10.25;;;;;22.86;27.72;101366.03;5068581;28;45512;-79
2023/03/02 00:30:09;;;;;;;;;12.25;10.75;;;;;22.88;27.65;101357.94;5074000;27;47214;-79
2023/03/02 00:32:34;;;;;;;;;10.75;8.25;;;;;22.87;27.78;101358.88;5072149;28;45401;-79
2023/03/02 00:35:00;;;;;;;;;8.00;6.50;;;;;22.84;28.31;101348.41;5075925;28;45480;-79
2023/03/02 00:37:25;;;;;;;;;7.25;7.00;;;;;22.87;28.32;101348.22;5064227;27;61072;-79
2023/03/02 00:39:51;;;;;;;;;8.25;7.50;;;;;22.85;28.45;101342.13;5070187;28;45518;-79
2023/03/02 00:42:17;;;;;;;;;8.00;7.50;;;;;22.86;28.52;101342.03;5050387;28;45589;-79
2023/03/02 00:44:42;;;;;;;;;11.00;10.00;;;;;22.86;28.37;101352.69;5060810;27;49499;-79
2023/03/02 00:47:08;;;;;;;;;8.75;8.75;;;;;22.87;27.87;101351.72;5048734;28;45736;-79
2023/03/02 00:49:33;;;;;;;;;11.00;8.50;;;;;22.88;28.02;101347.25;5074255;27;72370;-79
2023/03/02 00:51:59;;;;;;;;;8.25;8.00;;;;;22.90;27.76;101350.69;5066810;28;45407;-79
2023/03/02 00:54:24;;;;;;;;;10.00;9.25;;;;;22.92;28.19;101360.28;5076935;28;45500;-79
2023/03/02 00:56:50;;;;;;;;;9.25;8.25;;;;;22.89;28.02;101346.28;5054498;28;65706;-80
2023/03/02 00:59:27;;;;;;;;;10.50;8.00;;;;;22.91;28.11;101363.03;5060866;28;45332;-79
2023/03/02 01:01:57;;;;;;;;;10.00;8.75;;;;;22.93;28.04;101353.97;5053888;28;45851;-79
2023/03/02 01:04:29;;;;;;;;;10.50;10.00;;;;;22.95;27.84;101361.88;5074129;28;45510;-79
2023/03/02 01:06:56;;;;;;;;;10.00;9.00;;;;;22.94;27.86;101354.84;5072677;27;45500;-79
2023/03/02 01:09:22;;;;;;;;;9.75;8.00;;;;;22.96;28.20;101355.56;5074779;28;46237;-79
2023/03/02 01:11:47;;;;;;;;;12.25;8.50;;;;;22.93;28.00;101355.81;5068645;28;45611;-78
2023/03/02 01:14:12;;;;;;;;;9.50;9.50;;;;;22.88;27.76;101345.44;5076204;27;66681;-78
2023/03/02 01:16:38;;;;;;;;;10.00;10.00;;;;;22.92;28.06;101351.41;5066639;27;72458;-78
2023/03/02 01:19:03;;;;;;;;;11.50;10.00;;;;;22.94;27.96;101353.00;5058822;28;47000;-77
2023/03/02 01:21:28;;;;;;;;;10.50;8.75;;;;;22.97;27.74;101362.63;5072808;28;72866;-77
2023/03/02 01:23:54;;;;;;;;;12.75;9.50;;;;;22.94;28.18;101350.34;5076265;27;67661;-77
2023/03/02 01:26:19;;;;;;;;;11.50;9.25;;;;;22.96;27.69;101346.72;5074851;27;47022;-77
2023/03/02 01:28:44;;;;;;;;;11.75;9.75;;;;;22.98;27.58;101348.31;5052421;28;56647;-77
2023/03/02 01:31:10;;;;;;;;;13.00;10.25;;;;;22.97;27.87;101349.28;5076017;27;68740;-77
2023/03/02 01:33:35;;;;;;;;;12.25;9.50;;;;;22.99;28.11;101349.19;5078542;27;64141;-77
2023/03/02 01:36:00;;;;;;;;;7.50;7.25;;;;;22.99;28.26;101349.19;5080075;27;60101;-79
2023/03/02 01:38:26;;;;;;;;;9.50;9.00;;;;;22.99;27.76;101349.19;5079944;28;47544;-79
2023/03/02 01:40:51;;;;;;;;;10.75;9.00;;;;;22.98;27.81;101344.78;5067752;27;45228;-79
2023/03/02 01:43:17;;;;;;;;;10.50;9.75;;;;;22.98;27.57;101337.63;5073545;28;45401;-78
2023/03/02 01:45:56;;;;;;;;;8.00;8.00;;;;;23.00;28.09;101332.19;5071013;27;67864;-78
2023/03/02 01:48:26;;;;;;;;;10.50;8.75;;;;;22.97;27.62;101335.09;5077614;27;47179;-77
2023/03/02 01:50:52;;;;;;;;;8.75;7.75;;;;;22.94;27.74;101328.13;5081738;27;46014;-77
2023/03/02 01:53:19;;;;;;;;;11.25;10.00;;;;;22.99;27.60;101333.16;5072951;28;45327;-77
2023/03/02 01:55:45;;;;;;;;;9.25;9.00;;;;;22.98;27.59;101331.44;5078688;27;45718;-77
2023/03/02 01:58:12;;;;;;;;;11.25;9.25;;;;;22.95;27.96;101327.19;5078662;28;45344;-77
2023/03/02 02:00:38;;;;;;;;;10.75;10.50;;;;;22.97;27.62;101332.44;5073686;28;45992;-77
2023/03/02 02:03:09;;;;;;;;;10.50;10.00;;;;;22.96;27.95;101328.88;5063078;28;45332;-77
2023/03/02 02:05:40;;;;;;;;;10.50;8.25;;;;;22.93;27.73;101319.28;5059743;28;45726;-77
2023/03/02 02:08:06;;;;;;;;;12.50;10.25;;;;;22.96;28.03;101326.22;5067954;27;46353;-79
2023/03/02 02:10:32;;;;;;;;;14.00;11.00;;;;;22.98;27.85;101323.44;5057645;28;45582;-79
2023/03/02 02:12:58;;;;;;;;;9.50;9.25;;;;;22.96;28.06;101326.22;5074140;28;45530;-79
2023/03/02 02:15:23;;;;;;;;;9.00;9.00;;;;;22.96;27.73;101318.19;5057377;28;70194;-77
2023/03/02 02:17:49;;;;;;;;;9.75;9.00;;;;;22.93;28.27;101316.63;5085682;27;47341;-77
2023/03/02 02:20:44;;;;;;;;;11.00;10.00;;;;;22.93;27.76;101316.63;5068840;28;45737;-77
2023/03/02 02:23:27;;;;;;;;;11.00;9.25;;;;;22.94;27.88;101323.66;5078988;28;45412;-78
2023/03/02 02:25:57;;;;;;;;;9.00;9.00;;;;;22.95;27.96;101324.53;5074106;27;45676;-77
2023/03/02 02:28:47;;;;;;;;;9.00;8.00;;;;;22.90;28.22;101319.50;5072201;27;45421;-78
2023/03/02 02:31:25;;;;;;;;;7.50;6.50;;;;;22.93;28.36;101315.78;5064037;28;46120;-78
2023/03/02 02:33:53;;;;;;;;;7.75;7.00;;;;;22.91;28.45;101309.66;5079250;27;45420;-77
2023/03/02 02:36:22;;;;;;;;;8.25;7.25;;;;;22.96;27.83;101306.69;5073196;27;45314;-77
2023/03/02 02:38:50;;;;;;;;;9.50;8.00;;;;;22.97;28.10;101311.06;5074024;28;46181;-77
2023/03/02 02:41:22;;;;;;;;;8.25;7.75;;;;;22.96;27.95;101296.00;5067032;28;45599;-78
2023/03/02 02:43:48;;;;;;;;;8.75;6.50;;;;;22.94;28.03;101301.44;5061638;28;46472;-78
2023/03/02 02:46:14;;;;;;;;;8.75;8.75;;;;;22.93;27.74;101297.94;5063330;27;45588;-78
2023/03/02 02:48:39;;;;;;;;;9.25;7.50;;;;;22.97;28.11;101303.06;5061738;28;47308;-78
2023/03/02 02:51:07;;;;;;;;;12.00;9.50;;;;;22.98;27.98;101297.59;5072566;27;54473;-78
2023/03/02 02:53:47;;;;;;;;;11.00;8.75;;;;;23.00;27.87;101302.81;5059186;28;45476;-78
2023/03/02 02:56:12;;;;;;;;;9.25;8.75;;;;;22.98;27.50;101304.75;5068250;27;45405;-77
2023/03/02 02:58:49;;;;;;;;;9.50;9.00;;;;;23.01;27.57;101304.53;5082225;27;50825;-77
2023/03/02 03:01:18;;;;;;;;;10.00;10.00;;;;;23.01;27.98;101299.22;5096589;27;45957;-77
2023/03/02 03:03:51;;;;;;;;;11.50;8.75;;;;;22.98;27.91;101284.25;5057822;28;45328;-77
2023/03/02 03:06:19;;;;;;;;;7.25;7.25;;;;;23.01;28.06;101291.19;5057386;28;45876;-78
2023/03/02 03:08:45;;;;;;;;;11.00;9.00;;;;;23.02;27.48;101290.22;5068507;27;46901;-78
2023/03/02 03:11:12;;;;;;;;;8.67;8.67;;;;;23.02;27.73;101299.09;5074550;28;45196;-78
2023/03/02 03:13:38;;;;;;;;;10.00;8.75;;;;;23.01;27.66;101297.38;5072640;28;45548;-78
2023/03/02 03:16:05;;;;;;;;;10.00;8.25;;;;;22.99;27.86;101295.78;5059713;28;45465;-78
2023/03/02 03:18:31;;;;;;;;;10.00;8.75;;;;;23.01;27.78;101291.19;5077160;28;47283;-78
2023/03/02 03:20:56;;;;;;;;;6.00;6.00;;;;;23.03;27.53;101306.13;5078564;27;50074;-79
2023/03/02 03:23:22;;;;;;;;;13.00;10.00;;;;;23.02;27.50;101299.09;5073586;28;46311;-79
2023/03/02 03:25:47;;;;;;;;;10.00;8.75;;;;;;;;5077786;28;45296;-79
2023/03/02 03:28:13;;;;;;;;;11.00;8.00;;;;;23.03;27.67;101298.13;5064814;28;46606;-79
2023/03/02 03:30:38;;;;;;;;;11.00;10.00;;;;;23.00;27.61;101289.47;5059864;28;68353;-78
2023/03/02 03:33:03;;;;;;;;;10.50;9.50;;;;;23.02;27.34;101299.09;5058613;28;68084;-78
2023/03/02 03:35:29;;;;;;;;;10.00;8.25;;;;;23.05;27.80;101300.72;5053655;28;49727;-78
2023/03/02 03:37:54;;;;;;;;;8.50;8.50;;;;;22.97;27.47;101289.72;5073403;27;70309;-76
2023/03/02 03:40:19;;;;;;;;;11.50;8.00;;;;;22.98;27.35;101289.59;5074209;28;71291;-77
2023/03/02 03:42:45;;;;;;;;;7.00;7.00;;;;;;;;5076736;28;49846;-76
2023/03/02 03:45:10;;;;;;;;;8.75;8.50;;;;;23.03;27.67;101294.59;5074987;27;45514;-78
2023/03/02 03:47:36;;;;;;;;;8.25;8.25;;;;;23.03;27.92;101295.44;5072700;27;56274;-78
2023/03/02 03:50:01;;;;;;;;;10.75;8.75;;;;;23.01;27.34;101292.03;5052910;28;66433;-79
2023/03/02 03:52:29;;;;;;;;;10.00;9.00;;;;;23.01;27.25;101291.19;5062637;27;45471;-79
2023/03/02 03:54:59;;;;;;;;;11.75;9.25;;;;;23.01;27.59;101291.19;5076350;27;45928;-80
2023/03/02 03:57:25;;;;;;;;;9.00;9.00;;;;;23.02;27.44;101299.09;5059397;28;48219;-80
2023/03/02 03:59:51;;;;;;;;;12.25;10.50;;;;;22.99;27.37;101295.78;5075282;27;45564;-77
2023/03/02 04:02:16;;;;;;;;;11.50;9.75;;;;;22.99;27.45;101296.63;5069009;27;45488;-77
2023/03/02 04:04:42;;;;;;;;;9.50;9.00;;;;;23.01;27.42;101301.88;5075011;28;45228;-77
2023/03/02 04:07:08;;;;;;;;;9.00;7.25;;;;;22.99;27.88;101301.13;5067739;27;48083;-78
2023/03/02 04:09:36;;;;;;;;;7.00;6.25;;;;;22.96;28.04;101298.66;5076476;28;54793;-78
2023/03/02 04:12:03;;;;;;;;;6.75;6.00;;;;;23.02;27.74;101306.22;5071119;27;45453;-78
2023/03/02 04:14:28;;;;;;;;;7.25;6.25;;;;;23.03;27.95;101315.97;5076275;27;45688;-78
2023/03/02 04:16:53;;;;;;;;;7.25;6.50;;;;;22.98;27.61;101296.75;5077161;28;46481;-79
2023/03/02 04:19:19;;;;;;;;;9.00;6.00;;;;;23.03;27.89;101308.81;5071706;28;53095;-77
2023/03/02 04:21:47;;;;;;;;;7.00;7.00;;;;;23.02;27.83;101307.09;5064874;27;45478;-77
2023/03/02 04:24:14;;;;;;;;;7.75;7.00;;;;;23.03;27.49;101310.63;5078340;28;45469;-77
2023/03/02 04:26:41;;;;;;;;;11.00;8.75;;;;;23.05;27.51;101306.06;5079165;27;46393;-76
2023/03/02 04:29:06;;;;;;;;;11.00;9.25;;;;;23.02;27.70;101308.91;5059530;28;45358;-76
2023/03/02 04:31:32;;;;;;;;;9.50;7.50;;;;;23.02;27.65;101304.44;5076243;27;45405;-76
2023/03/02 04:33:58;;;;;;;;;8.00;7.75;;;;;23.05;27.33;101306.06;5054846;28;45624;-78
2023/03/02 04:36:24;;;;;;;;;13.75;9.50;;;;;23.06;27.72;101313.97;5076304;27;45443;-78
2023/03/02 04:38:50;;;;;;;;;10.50;8.00;;;;;23.03;27.45;101310.63;5067992;27;45204;-78
2023/03/02 04:41:15;;;;;;;;;6.00;6.00;;;;;22.89;27.62;101291.09;5071407;28;45515;-77
2023/03/02 04:43:41;;;;;;;;;7.00;6.50;;;;;23.03;27.85;101314.13;5066465;28;45423;-77
2023/03/02 04:46:09;;;;;;;;;10.00;8.00;;;;;23.09;27.85;101313.75;5074686;28;45532;-78
2023/03/02 04:48:34;;;;;;;;;8.25;7.50;;;;;23.08;27.72;101316.53;5062115;28;45380;-77
2023/03/02 04:51:00;;;;;;;;;8.50;8.25;;;;;23.05;27.60;101316.75;5079815;27;45536;-78
2023/03/02 04:53:25;;;;;;;;;8.75;8.00;;;;;23.07;27.49;101317.47;5054796;28;45948;-78
2023/03/02 04:55:50;;;;;;;;;10.50;8.75;;;;;23.07;27.80;101317.47;5065429;28;65761;-77
2023/03/02 04:58:16;;;;;;;;;9.75;8.00;;;;;23.08;27.62;101311.19;5053442;28;45268;-77
2023/03/02 05:00:41;;;;;;;;;10.25;7.75;;;;;23.02;27.97;101299.09;5074646;27;45480;-77
2023/03/02 05:03:06;;;;;;;;;11.50;7.75;;;;;23.07;27.88;101309.47;5057383;28;52254;-78
2023/03/02 05:05:32;;;;;;;;;8.25;7.50;;;;;23.00;27.25;101303.69;5059407;28;72397;-78
2023/03/02 05:07:58;;;;;;;;;9.00;9.00;;;;;23.09;27.32;101315.59;5066174;28;45248;-77
2023/03/02 05:10:25;;;;;;;;;11.25;9.25;;;;;23.09;27.56;101312.91;5070668;28;45370;-78
2023/03/02 05:12:53;;;;;;;;;14.00;8.25;;;;;23.09;27.21;101307.56;5070578;28;45382;-77
2023/03/02 05:15:20;;;;;;;;;7.50;7.50;;;;;23.08;27.24;101308.53;5058485;28;46987;-77
2023/03/02 05:17:46;;;;;;;;;12.00;10.00;;;;;23.03;27.74;101300.78;5075134;28;45796;-76
2023/03/02 05:20:11;;;;;;;;;9.25;7.75;;;;;23.08;27.69;101309.38;5063762;27;61102;-77
2023/03/02 05:22:37;;;;;;;;;11.25;9.00;;;;;23.08;27.62;101313.84;5074063;27;45585;-78
2023/03/02 05:25:03;;;;;;;;;10.75;8.25;;;;;23.06;27.46;101308.63;5068231;28;61789;-78
2023/03/02 05:27:29;;;;;;;;;9.50;8.75;;;;;23.07;27.14;101321.03;5074018;28;45868;-76
2023/03/02 05:29:54;;;;;;;;;10.00;9.00;;;;;23.01;27.51;101310.72;5072584;28;63962;-76
2023/03/02 05:32:19;;;;;;;;;9.75;8.00;;;;;23.07;27.19;101322.81;5054702;28;67159;-77
2023/03/02 05:34:45;;;;;;;;;13.00;9.50;;;;;23.07;27.50;101320.16;5058217;28;63121;-78
2023/03/02 05:37:10;;;;;;;;;10.50;7.75;;;;;23.06;27.78;101316.63;5048807;28;45993;-77
2023/03/02 05:39:35;;;;;;;;;7.50;6.00;;;;;23.03;27.72;101306.13;5050930;28;45351;-77
2023/03/02 05:42:01;;;;;;;;;8.75;7.00;;;;;23.07;27.96;101307.69;5073212;28;45642;-77
2023/03/02 05:44:26;;;;;;;;;6.00;6.00;;;;;23.03;28.01;101308.81;5068780;28;47105;-78
2023/03/02 05:46:52;;;;;;;;;9.25;6.25;;;;;23.06;28.11;101321.97;5072301;27;45287;-78
2023/03/02 05:49:17;;;;;;;;;7.75;6.50;;;;;23.02;27.97;101309.78;5079340;27;45845;-79
2023/03/02 05:51:42;;;;;;;;;6.75;6.75;;;;;23.05;27.72;101311.41;5062875;28;45297;-79
2023/03/02 05:54:08;;;;;;;;;6.00;6.00;;;;;23.05;27.63;101320.25;5055279;28;66343;-79
2023/03/02 05:56:33;;;;;;;;;9.75;5.75;;;;;23.02;27.62;101315.13;5055298;28;45477;-78
2023/03/02 05:58:58;;;;;;;;;5.00;4.00;;;;;23.09;27.79;101334.28;5077733;28;45395;-78
2023/03/02 06:01:24;;;;;;;;;8.00;5.75;;;;;23.08;28.00;101327.22;5067291;27;59203;-78
2023/03/02 06:03:49;;;;;;;;;8.75;7.50;;;;;23.06;27.95;101324.66;5053882;28;52369;-77
2023/03/02 06:06:15;;;;;;;;;8.75;7.00;;;;;23.05;27.62;101325.59;5067766;28;62242;-78
2023/03/02 06:08:41;;;;;;;;;10.00;8.25;;;;;23.10;27.84;101335.97;5068134;28;45490;-78
2023/03/02 06:11:07;;;;;;;;;8.00;6.00;;;;;23.11;28.14;101348.34;5052687;28;45853;-77
2023/03/02 06:13:33;;;;;;;;;7.25;7.25;;;;;23.10;27.68;101341.28;5076587;27;46248;-77
2023/03/02 06:15:58;;;;;;;;;6.25;5.00;;;;;23.11;27.90;101343.88;5070293;28;46928;-78
2023/03/02 06:18:23;;;;;;;;;7.75;6.75;;;;;23.09;27.83;101334.28;5056986;28;45566;-78
2023/03/02 06:20:49;;;;;;;;;7.75;6.75;;;;;23.11;27.88;101345.69;5074378;28;67531;-77
2023/03/02 06:23:15;;;;;;;;;4.50;4.00;;;;;23.12;27.48;101348.25;5057800;28;47235;-77
2023/03/02 06:25:46;;;;;;;;;9.75;7.00;;;;;23.16;27.88;101348.91;5076348;27;45911;-77
2023/03/02 06:28:12;;;;;;;;;6.50;6.50;;;;;23.16;27.92;101348.91;5067862;28;45488;-77
2023/03/02 06:30:38;;;;;;;;;8.00;8.00;;;;;23.15;28.03;101344.50;5074399;28;45319;-77
2023/03/02 06:33:03;;;;;;;;;9.00;6.00;;;;;23.17;27.39;101352.41;5070479;27;45512;-77
2023/03/02 06:35:28;;;;;;;;;9.50;7.50;;;;;23.16;27.63;101353.34;5087373;27;45245;-77
2023/03/02 06:37:56;;;;;;;;;9.50;7.00;;;;;23.16;27.46;101361.38;5071716;27;45486;-72
2023/03/02 06:40:21;;;;;;;;;23.75;21.25;;;;;23.15;26.33;101359.69;5074646;27;45362;-72
2023/03/02 06:42:47;;;;;;;;;26.50;22.50;;;;;23.07;25.84;101361.06;5070850;27;62685;-71
2023/03/02 06:45:12;;;;;;;;;29.00;25.75;;;;;22.97;25.51;101364.47;5074692;28;45258;-73
2023/03/02 06:47:38;;;;;;;;;32.25;27.00;;;;;22.87;25.56;101365.06;5067531;27;60321;-71
2023/03/02 06:50:04;;;;;;;;;28.25;24.50;;;;;22.74;25.18;101361.56;5070123;27;45480;-75
2023/03/02 06:52:29;;;;;;;;;27.50;24.00;;;;;22.62;25.21;101363.22;5070001;27;46345;-75
2023/03/02 06:54:55;;;;;;;;;31.50;25.00;;;;;22.53;25.54;101359.38;5070456;27;45568;-74
2023/03/02 06:57:20;;;;;;;;;24.25;18.00;;;;;22.42;25.52;101353.91;5080960;27;45472;-77
2023/03/02 06:59:45;;;;;;;;;20.00;17.50;;;;;22.43;26.27;101365.44;5055179;28;61258;-76
2023/03/02 07:02:11;;;;;;;;;22.50;17.75;;;;;22.47;26.48;101367.81;5068770;27;65260;-75
2023/03/02 07:04:36;;;;;;;;;23.75;19.00;;;;;22.48;26.65;101369.50;5066534;27;46019;-76
2023/03/02 07:07:04;;;;;;;;;20.75;16.25;;;;;22.49;27.00;101365.03;5056789;28;45534;-76
2023/03/02 07:09:33;;;;;;;;;21.00;16.00;;;;;22.55;27.34;101367.28;5054197;27;45584;-75
2023/03/02 07:11:58;;;;;;;;;15.75;14.00;;;;;22.59;26.67;101368.75;5075975;27;47138;-74
2023/03/02 07:14:24;;;;;;;;;15.50;12.75;;;;;22.61;27.01;101366.88;5075134;27;45334;-73
2023/03/02 07:16:49;;;;;;;;;15.25;15.25;;;;;22.56;27.31;101361.00;5079275;27;54771;-75
2023/03/02 07:19:14;;;;;;;;;21.50;17.50;;;;;22.59;27.61;101362.59;5076654;27;49566;-74
2023/03/02 07:21:40;;;;;;;;;18.00;14.75;;;;;22.66;27.36;101364.72;5070867;28;45363;-75
2023/03/02 07:24:05;;;;;;;;;13.75;12.25;;;;;22.66;27.52;101367.38;5073130;28;65063;-74
2023/03/02 07:26:31;;;;;;;;;13.75;11.75;;;;;22.73;27.15;101365.16;5079468;28;45284;-73
2023/03/02 07:28:58;;;;;;;;;14.00;13.50;;;;;22.66;27.14;101362.06;5058166;28;68598;-75
2023/03/02 07:31:24;;;;;;;;;15.00;13.50;;;;;22.74;27.26;101362.41;5071951;27;47326;-71
2023/03/02 07:33:49;;;;;;;;;17.00;14.25;;;;;22.75;27.21;101365.91;5075253;28;45333;-73
2023/03/02 07:36:14;;;;;;;;;14.50;13.25;;;;;22.75;27.71;101357.91;5071513;27;45436;-71
2023/03/02 07:38:40;;;;;;;;;21.50;19.50;;;;;22.77;26.73;101366.69;5068284;27;57453;-74
2023/03/02 07:41:07;;;;;;;;;19.25;14.00;;;;;22.67;27.02;101346.91;5075642;27;46469;-71
2023/03/02 07:43:34;;;;;;;;;20.25;12.50;;;;;22.69;27.12;101353.00;5058221;28;45708;-74
2023/03/02 07:46:00;;;;;;;;;15.00;12.75;;;;;22.69;26.90;101359.19;5067770;27;45554;-74
2023/03/02 07:48:25;;;;;;;;;15.75;12.50;;;;;22.69;27.22;101359.19;5062077;27;45529;-75
2023/03/02 07:50:50;;;;;;;;;12.50;11.25;;;;;22.68;26.92;101359.28;5073305;27;56937;-75
2023/03/02 07:53:16;;;;;;;;;11.50;10.00;;;;;22.73;27.46;101366.03;5073936;28;55367;-73
2023/03/02 07:55:41;;;;;;;;;14.50;13.50;;;;;22.73;27.67;101363.38;5053866;28;45450;-75
2023/03/02 07:58:07;;;;;;;;;14.00;10.00;;;;;22.78;27.40;101362.19;5065768;28;47750;-74
2023/03/02 08:00:32;;;;;;;;;11.00;10.25;;;;;22.77;27.61;101363.13;5075990;27;46347;-76
2023/03/02 08:02:58;;;;;;;;;11.00;9.25;;;;;22.81;27.66;101354.84;5075348;27;45539;-74
2023/03/02 08:05:23;;;;;;;;;13.00;11.50;;;;;22.82;27.54;101363.69;5073777;27;68119;-75
2023/03/02 08:07:48;;;;;;;;;12.50;10.75;;;;;22.83;27.39;101368.91;5070284;27;45604;-76
2023/03/02 08:10:14;;;;;;;;;13.25;9.00;;;;;22.83;27.68;101371.59;5052427;28;66775;-77
2023/03/02 08:12:41;;;;;;;;;9.75;9.50;;;;;22.84;28.20;101375.09;5065346;27;45772;-74
2023/03/02 08:15:07;;;;;;;;;8.50;8.00;;;;;22.86;27.56;101373.19;5079538;27;45262;-75
2023/03/02 08:17:33;;;;;;;;;8.00;7.75;;;;;22.91;27.78;101393.28;5079203;27;45469;-76
2023/03/02 08:19:58;;;;;;;;;10.50;9.00;;;;;22.92;28.04;101384.28;5067459;28;45447;-72
2023/03/02 08:22:23;;;;;;;;;12.25;9.00;;;;;22.94;28.38;101385.03;5076702;28;48539;-80
2023/03/02 08:24:49;;;;;;;;;12.75;9.00;;;;;22.96;28.51;101381.41;5076103;27;46332;-73
2023/03/02 08:27:14;;;;;;;;;10.00;9.25;;;;;22.99;27.77;101381.22;5065493;28;64841;-73
2023/03/02 08:29:40;;;;;;;;;11.00;7.75;;;;;22.99;27.75;101374.06;5070854;27;46849;-80
2023/03/02 08:32:06;;;;;;;;;5.00;5.00;;;;;23.01;28.32;101379.28;5067487;28;45843;-74
2023/03/02 08:34:31;;;;;;;;;10.00;7.50;;;;;23.02;28.11;101379.19;5093476;27;51334;-80
2023/03/02 08:36:57;;;;;;;;;10.50;9.00;;;;;22.97;28.30;101367.13;5063871;28;45566;-80
2023/03/02 08:39:22;;;;;;;;;9.00;9.00;;;;;22.84;27.74;101341.28;5074288;27;45977;-80
2023/03/02 08:41:51;;;;;;;;;29.50;24.50;;;;;23.06;27.21;101371.84;5060921;28;45295;-74
2023/03/02 08:44:19;;;;;;;;;11.50;8.75;;;;;22.93;27.57;101369.16;5073610;28;45655;-74
2023/03/02 08:46:45;;;;;;;;;11.25;9.50;;;;;22.92;27.63;101373.63;5050859;28;45456;-73
2023/03/02 08:49:10;;;;;;;;;9.00;8.00;;;;;22.87;27.52;101359.72;5064509;28;45331;-75
2023/03/02 08:51:35;;;;;;;;;8.25;7.25;;;;;22.94;27.99;101365.50;5075691;28;74355;-81
2023/03/02 08:54:01;;;;;;;;;11.25;7.75;;;;;22.89;28.31;101344.47;5084683;28;45439;-80
2023/03/02 08:56:32;;;;;;;;;8.75;8.25;;;;;22.98;28.03;101356.31;5075547;28;45542;-80
2023/03/02 08:59:03;;;;;;;;;10.75;8.75;;;;;22.98;27.59;101361.66;5049346;28;46592;-80
2023/03/02 09:01:31;;;;;;;;;10.00;7.50;;;;;22.99;27.82;101357.19;5067517;28;45340;-78
2023/03/02 09:03:58;;;;;;;;;12.25;7.25;;;;;22.97;28.02;101353.78;5074087;28;45223;-74
2023/03/02 09:06:24;;;;;;;;;9.00;8.00;;;;;22.98;28.01;101356.31;5053872;28;46072;-72
2023/03/02 09:08:50;;;;;;;;;9.75;8.00;;;;;22.98;28.18;101347.47;5068644;27;45638;-73
2023/03/02 09:11:15;;;;;;;;;11.50;10.00;;;;;23.01;28.13;101349.94;5079024;27;45469;-76
2023/03/02 09:13:41;;;;;;;;;10.00;8.75;;;;;;;;5079870;27;45670;-74
2023/03/02 09:16:07;;;;;;;;;10.25;7.25;;;;;23.05;28.36;101344.28;5078582;28;45604;-71
2023/03/02 09:18:33;;;;;;;;;9.00;9.00;;;;;23.03;28.02;101340.84;5062182;28;46121;-78
2023/03/02 09:20:58;;;;;;;;;9.50;8.75;;;;;;;;5052266;28;45233;-76
2023/03/02 09:23:24;;;;;;;;;8.67;7.33;;;;;23.06;28.37;101343.31;5074516;27;46241;-73
2023/03/02 09:25:50;;;;;;;;;8.75;8.00;;;;;23.10;28.02;101349.31;5069774;28;45607;-71
2023/03/02 09:28:16;;;;;;;;;13.50;9.00;;;;;23.10;28.12;101347.47;5071570;27;45795;-72
2023/03/02 09:30:48;;;;;;;;;10.50;8.00;;;;;23.10;28.46;101349.31;5076247;28;45346;-74
2023/03/02 09:33:13;;;;;;;;;10.00;8.25;;;;;23.13;28.59;101351.78;5092053;27;45476;-72
2023/03/02 09:35:38;;;;;;;;;8.75;8.75;;;;;23.07;27.86;101338.84;5077686;27;45415;-73
2023/03/02 09:38:04;;;;;;;;;6.75;6.75;;;;;23.17;28.41;101349.75;5065831;27;45369;-72
2023/03/02 09:40:32;;;;;;;;;7.25;6.00;;;;;23.19;28.56;101345.13;5074539;28;55874;-73
2023/03/02 09:43:49;;;;;;;;;11.00;9.00;;;;;23.20;28.15;101342.38;5059090;28;45445;-78
2023/03/02 09:46:37;;;;;;;;;10.00;8.00;;;;;23.21;27.95;101340.53;5056605;27;45394;-77
2023/03/02 09:49:20;;;;;;;;;12.00;8.50;;;;;23.23;28.32;101338.59;5069813;27;47477;-74
2023/03/02 09:52:01;;;;;;;;;11.25;9.75;;;;;23.23;27.99;101334.16;5069413;27;45449;-75
2023/03/02 09:54:27;;;;;;;;;12.00;10.50;;;;;23.23;28.41;101342.16;5065321;28;45296;-72
2023/03/02 09:56:56;;;;;;;;;10.75;10.75;;;;;23.28;28.69;101339.13;5073064;27;45565;-72
2023/03/02 09:59:43;;;;;;;;;10.50;9.50;;;;;23.30;28.38;101348.78;5069302;28;47178;-73
2023/03/02 10:02:57;;;;;;;;;12.00;9.25;;;;;23.33;28.59;101353.03;5063899;28;45068;-76
2023/03/02 10:05:40;;;;;;;;;13.00;11.00;;;;;23.31;28.04;101349.59;5042643;28;45854;-74
2023/03/02 10:08:19;;;;;;;;;11.25;10.00;;;;;23.31;28.17;101347.78;5051729;28;45570;-76
2023/03/02 10:11:20;;;;;;;;;13.75;11.00;;;;;23.38;28.10;101355.38;5054474;28;47350;-73
2023/03/02 10:13:51;;;;;;;;;12.50;8.75;;;;;23.32;28.07;101348.66;5078136;28;45476;-73
2023/03/02 10:16:37;;;;;;;;;10.00;10.00;;;;;23.40;28.69;101354.28;5074842;27;45440;-73
2023/03/02 10:19:16;;;;;;;;;11.50;8.75;;;;;23.44;28.18;101349.59;5054698;28;46993;-72
2023/03/02 10:21:46;;;;;;;;;10.25;10.00;;;;;23.42;28.38;101347.03;5072948;28;45451;-73
2023/03/02 10:24:25;;;;;;;;;8.50;7.50;;;;;23.45;27.96;101337.94;5072832;27;45217;-70
2023/03/02 10:26:58;;;;;;;;;11.00;10.00;;;;;23.45;28.14;101335.28;5058125;28;45391;-78
2023/03/02 10:29:42;;;;;;;;;11.25;9.75;;;;;23.47;28.21;101341.34;5077671;27;45451;-75
2023/03/02 10:32:23;;;;;;;;;12.00;11.75;;;;;23.47;28.05;101342.19;5057585;28;48293;-75
2023/03/02 10:34:50;;;;;;;;;11.50;10.00;;;;;23.46;27.79;101332.50;5079213;28;45769;-76
2023/03/02 10:37:20;;;;;;;;;14.50;11.00;;;;;23.45;27.99;101340.63;5070211;27;45291;-76
2023/03/02 10:39:46;;;;;;;;;14.00;11.00;;;;;23.45;27.84;101336.13;5050959;28;45803;-73
2023/03/02 10:42:19;;;;;;;;;11.75;11.50;;;;;23.47;28.17;101336.00;5080105;27;45505;-74
2023/03/02 10:44:48;;;;;;;;;12.00;10.75;;;;;23.44;27.80;101329.09;5069350;28;45822;-73
2023/03/02 10:47:23;;;;;;;;;15.00;12.50;;;;;23.53;27.87;101337.38;5079282;27;45504;-76
2023/03/02 10:49:49;;;;;;;;;13.25;10.75;;;;;23.52;28.00;101323.19;5055792;28;45510;-76
2023/03/02 10:52:18;;;;;;;;;15.25;12.25;;;;;23.54;27.81;101326.59;5074806;27;46796;-75
2023/03/02 10:54:43;;;;;;;;;14.75;11.75;;;;;23.55;28.05;101325.63;5059722;28;45608;-76
2023/03/02 10:57:35;;;;;;;;;11.25;11.25;;;;;23.56;28.18;101313.13;5073875;28;45440;-76
2023/03/02 11:00:12;;;;;;;;;14.50;10.00;;;;;23.56;28.38;101319.31;5055484;28;45463;-74
2023/03/02 11:02:38;;;;;;;;;11.75;9.75;;;;;23.57;28.30;101313.00;5068270;28;46630;-77
2023/03/02 11:05:20;;;;;;;;;13.75;10.75;;;;;23.57;28.30;101315.69;5053273;28;45273;-77
2023/03/02 11:08:04;;;;;;;;;14.25;11.25;;;;;23.59;28.47;101315.59;5074163;27;45311;-80
2023/03/02 11:10:33;;;;;;;;;10.00;10.00;;;;;23.60;28.31;101312.81;5074236;27;45308;-72
2023/03/02 11:12:59;;;;;;;;;7.75;7.75;;;;;23.61;28.09;101319.00;5090992;27;47059;-73
2023/03/02 11:15:34;;;;;;;;;12.25;9.25;;;;;23.59;28.12;101316.44;5078414;28;45708;-75
2023/03/02 11:18:23;;;;;;;;;12.50;7.50;;;;;23.61;27.91;101314.50;5075579;28;45681;-76
2023/03/02 11:20:58;;;;;;;;;9.75;9.25;;;;;23.60;27.80;101310.13;5073926;27;45481;-76
2023/03/02 11:23:40;;;;;;;;;11.25;8.75;;;;;23.58;28.00;101304.03;5059986;28;45398;-75